Time;durP1;ratioP1;P1;durP2;ratioP2;P2;SDS_P1;SDS_P2;PMS_P1;PMS_P2;Temp;Humidity;BMP_temperature;BMP_pressure;BME280_temperature;BME280_humidity;BME280_pressure;Samples;Min_cycle;Max_cycle;Signal;HPM_P1;HPM_P2
2022/02/26 00:21:55;;;;;;;5.55;5.05;;;;;;;;;;5174081;27;20479;-66
2022/02/26 00:24:21;;;;;;;9.10;6.70;;;;;;;;;;5180402;27;20252;-67
2022/02/26 00:26:47;;;;;;;7.28;5.95;;;;;;;;;;5180851;27;20456;-68
2022/02/26 00:29:13;;;;;;;6.12;5.53;;;;;;;;;;5180454;27;20154;-67
2022/02/26 00:31:39;;;;;;;6.65;5.82;;;;;;;;;;5180180;27;20074;-61
2022/02/26 00:34:05;;;;;;;7.10;5.70;;;;;;;;;;5161564;27;20176;-61
2022/02/26 00:36:31;;;;;;;6.10;5.50;;;;;;;;;;5161292;27;20101;-68
2022/02/26 00:38:57;;;;;;;6.47;5.87;;;;;;;;;;5180487;27;20508;-66
2022/02/26 00:41:25;;;;;;;6.20;5.60;;;;;;;;;;5180294;27;20090;-66
2022/02/26 00:43:52;;;;;;;6.30;5.70;;;;;;;;;;5180285;27;20120;-62
2022/02/26 00:46:18;;;;;;;6.43;5.82;;;;;;;;;;5180056;27;20413;-62
2022/02/26 00:51:29;;;;;;;6.15;5.55;;;;;;;;;;5180306;27;20113;-65
2022/02/26 00:53:55;;;;;;;6.75;5.40;;;;;;;;;;5180131;27;20524;-65
2022/02/26 00:56:21;;;;;;;5.90;5.40;;;;;;;;;;5179771;27;20085;-65
2022/02/26 00:58:48;;;;;;;5.70;5.20;;;;;;;;;;5160810;27;20098;-65
2022/02/26 01:01:14;;;;;;;6.30;5.70;;;;;;;;;;5180164;27;20086;-64
2022/02/26 01:03:40;;;;;;;6.28;5.68;;;;;;;;;;5180145;27;20508;-65
2022/02/26 01:06:06;;;;;;;6.00;5.40;;;;;;;;;;5179964;27;20093;-65
2022/02/26 01:08:32;;;;;;;6.50;5.82;;;;;;;;;;5180178;27;20494;-65
2022/02/26 01:10:58;;;;;;;6.47;5.43;;;;;;;;;;5161098;27;20069;-65
2022/02/26 01:13:24;;;;;;;6.22;5.62;;;;;;;;;;5180175;27;20078;-65
2022/02/26 01:15:50;;;;;;;6.62;6.03;;;;;;;;;;5161333;27;20469;-65
2022/02/26 01:18:16;;;;;;;6.37;5.78;;;;;;;;;;5160883;27;20088;-64
2022/02/26 01:20:42;;;;;;;6.35;5.72;;;;;;;;;;5179877;27;20492;-65
2022/02/26 01:23:09;;;;;;;5.95;5.37;;;;;;;;;;5143573;27;20086;-64
2022/02/26 01:25:35;;;;;;;6.05;5.32;;;;;;;;;;5180153;27;20418;-64
2022/02/26 01:28:01;;;;;;;5.55;5.05;;;;;;;;;;5179812;27;20069;-64
2022/02/26 01:30:28;;;;;;;6.28;5.57;;;;;;;;;;5179733;27;20074;-64
2022/02/26 01:32:54;;;;;;;6.12;5.53;;;;;;;;;;5161304;27;20677;-63
2022/02/26 01:35:20;;;;;;;6.12;5.53;;;;;;;;;;5143797;27;20124;-64
2022/02/26 01:37:46;;;;;;;6.05;5.45;;;;;;;;;;5180429;27;20179;-64
2022/02/26 01:40:13;;;;;;;6.47;5.87;;;;;;;;;;5180166;27;20071;-63
2022/02/26 01:42:39;;;;;;;6.90;6.18;;;;;;;;;;5160729;27;20094;-63
2022/02/26 01:45:13;;;;;;;7.12;6.53;;;;;;;;;;5143711;27;20469;-63
2022/02/26 01:47:41;;;;;;;6.18;5.62;;;;;;;;;;5160837;27;20081;-64
2022/02/26 01:50:08;;;;;;;6.57;5.97;;;;;;;;;;5143246;27;20100;-65
2022/02/26 01:52:34;;;;;;;6.62;5.95;;;;;;;;;;5161061;27;20096;-67
2022/02/26 01:55:00;;;;;;;5.90;5.40;;;;;;;;;;5160404;27;20599;-68
2022/02/26 01:57:26;;;;;;;6.68;5.95;;;;;;;;;;5179984;27;20089;-68
2022/02/26 01:59:52;;;;;;;6.05;5.45;;;;;;;;;;5160557;27;20093;-65
2022/02/26 02:02:18;;;;;;;6.10;5.50;;;;;;;;;;5143446;27;20469;-66
2022/02/26 02:04:45;;;;;;;5.95;5.45;;;;;;;;;;5179998;27;20175;-64
2022/02/26 02:07:11;;;;;;;5.82;5.32;;;;;;;;;;5179783;27;20086;-65
2022/02/26 02:09:37;;;;;;;6.20;5.60;;;;;;;;;;5143757;27;20081;-66
2022/02/26 02:12:04;;;;;;;5.82;5.28;;;;;;;;;;5179410;27;20422;-66
2022/02/26 02:14:30;;;;;;;5.65;5.12;;;;;;;;;;5161078;27;20085;-65
2022/02/26 02:16:56;;;;;;;6.43;5.35;;;;;;;;;;5179785;27;20477;-66
2022/02/26 02:19:25;;;;;;;6.10;5.50;;;;;;;;;;5179360;27;20465;-65
2022/02/26 02:21:51;;;;;;;6.18;5.57;;;;;;;;;;5179516;27;20081;-65
2022/02/26 02:24:17;;;;;;;5.78;5.25;;;;;;;;;;5160786;27;20074;-65
2022/02/26 02:26:45;;;;;;;5.85;5.35;;;;;;;;;;5160629;27;20074;-65
2022/02/26 02:29:11;;;;;;;6.18;5.57;;;;;;;;;;5179511;27;20480;-66
2022/02/26 02:31:37;;;;;;;5.15;4.62;;;;;;;;;;5160615;27;20160;-64
2022/02/26 02:34:04;;;;;;;6.20;5.60;;;;;;;;;;5179501;27;20187;-64
2022/02/26 02:36:30;;;;;;;5.78;5.20;;;;;;;;;;5160480;27;20098;-64
2022/02/26 02:38:57;;;;;;;6.07;5.53;;;;;;;;;;5179456;27;20082;-64
2022/02/26 02:41:23;;;;;;;5.53;5.03;;;;;;;;;;5179535;27;20082;-66
2022/02/26 02:43:50;;;;;;;5.97;5.35;;;;;;;;;;5179334;27;20517;-66
2022/02/26 02:46:16;;;;;;;6.37;5.75;;;;;;;;;;5179407;27;20165;-66
2022/02/26 02:48:42;;;;;;;6.00;5.37;;;;;;;;;;5179707;27;20514;-63
2022/02/26 02:51:08;;;;;;;6.10;5.50;;;;;;;;;;5179469;27;20106;-63
2022/02/26 02:53:34;;;;;;;6.28;5.68;;;;;;;;;;5179494;27;20065;-63
2022/02/26 02:56:00;;;;;;;6.32;5.70;;;;;;;;;;5179669;27;20059;-64
2022/02/26 02:58:28;;;;;;;5.60;5.12;;;;;;;;;;5160374;27;20074;-63
2022/02/26 03:00:55;;;;;;;6.10;5.60;;;;;;;;;;5160116;27;20082;-66
2022/02/26 03:03:21;;;;;;;7.25;6.18;;;;;;;;;;5160268;27;20159;-66
2022/02/26 03:05:47;;;;;;;6.65;6.05;;;;;;;;;;5179295;27;20415;-66
2022/02/26 03:08:14;;;;;;;6.20;5.62;;;;;;;;;;5179412;27;20176;-65
2022/02/26 03:10:40;;;;;;;6.80;6.12;;;;;;;;;;5160522;27;20135;-66
2022/02/26 03:13:07;;;;;;;6.50;5.90;;;;;;;;;;5179360;27;20114;-66
2022/02/26 03:15:33;;;;;;;7.72;7.03;;;;;;;;;;5160553;27;20102;-66
2022/02/26 03:17:59;;;;;;;7.05;6.37;;;;;;;;;;5179230;27;20434;-68
2022/02/26 03:20:25;;;;;;;7.78;6.62;;;;;;;;;;5179142;27;20081;-64
2022/02/26 03:22:51;;;;;;;7.53;6.82;;;;;;;;;;5179243;27;20504;-64
2022/02/26 03:25:19;;;;;;;7.15;6.45;;;;;;;;;;5142883;27;20102;-65
2022/02/26 03:27:45;;;;;;;6.87;6.25;;;;;;;;;;5179336;27;20066;-65
2022/02/26 03:30:11;;;;;;;7.47;6.78;;;;;;;;;;5179450;27;20094;-65
2022/02/26 03:32:39;;;;;;;7.82;6.53;;;;;;;;;;5180728;27;20102;-64
2022/02/26 03:35:07;;;;;;;7.82;7.00;;;;;;;;;;5180644;27;20070;-64
2022/02/26 03:37:33;;;;;;;7.10;6.40;;;;;;;;;;5180711;27;20461;-64
2022/02/26 03:39:59;;;;;;;8.23;6.90;;;;;;;;;;5180852;27;20085;-64
2022/02/26 03:42:25;;;;;;;7.80;7.00;;;;;;;;;;5161459;27;20101;-65
2022/02/26 03:44:51;;;;;;;7.57;6.80;;;;;;;;;;5180553;27;20096;-65
2022/02/26 03:47:18;;;;;;;8.05;7.25;;;;;;;;;;5180542;27;20081;-65
2022/02/26 03:49:48;;;;;;;8.15;7.32;;;;;;;;;;5180595;27;20410;-64
2022/02/26 03:52:14;;;;;;;7.25;6.55;;;;;;;;;;5179696;27;20101;-62
2022/02/26 03:54:40;;;;;;;8.35;7.00;;;;;;;;;;5179651;27;20569;-65
2022/02/26 03:57:07;;;;;;;8.00;7.28;;;;;;;;;;5161372;27;20070;-63
2022/02/26 03:59:33;;;;;;;8.05;7.25;;;;;;;;;;5180382;27;20172;-65
2022/02/26 04:01:59;;;;;;;8.20;6.87;;;;;;;;;;5180174;27;20932;-64
2022/02/26 04:04:25;;;;;;;7.65;6.95;;;;;;;;;;5180436;27;20156;-63
2022/02/26 04:06:51;;;;;;;7.53;6.82;;;;;;;;;;5180508;27;20180;-63
2022/02/26 04:09:18;;;;;;;8.50;7.60;;;;;;;;;;5180806;27;20082;-63
2022/02/26 04:11:44;;;;;;;7.60;6.90;;;;;;;;;;5180281;27;20061;-64
2022/02/26 04:14:10;;;;;;;8.02;7.22;;;;;;;;;;5180348;27;20094;-64
2022/02/26 04:16:36;;;;;;;6.90;6.20;;;;;;;;;;5180602;27;20164;-64
2022/02/26 04:19:02;;;;;;;8.20;6.12;;;;;;;;;;5180594;27;20070;-65
2022/02/26 04:21:29;;;;;;;6.72;6.12;;;;;;;;;;5180183;27;20066;-66
2022/02/26 04:23:56;;;;;;;7.60;6.80;;;;;;;;;;5144333;27;20078;-65
2022/02/26 04:26:23;;;;;;;6.82;6.20;;;;;;;;;;5161273;27;20070;-65
2022/02/26 04:28:50;;;;;;;7.85;6.80;;;;;;;;;;5180197;27;20086;-64
2022/02/26 04:31:17;;;;;;;7.87;6.93;;;;;;;;;;5160995;27;20101;-64
2022/02/26 04:33:44;;;;;;;9.50;6.93;;;;;;;;;;5160590;27;20074;-65
2022/02/26 04:36:10;;;;;;;7.93;7.12;;;;;;;;;;5161187;27;20172;-63
2022/02/26 04:38:37;;;;;;;8.48;7.40;;;;;;;;;;5180104;27;20081;-64
2022/02/26 04:41:03;;;;;;;8.02;7.22;;;;;;;;;;5180200;27;20093;-63
2022/02/26 04:43:30;;;;;;;8.65;7.40;;;;;;;;;;5160993;27;20394;-64
2022/02/26 04:45:56;;;;;;;9.13;7.90;;;;;;;;;;5161121;27;20164;-64
2022/02/26 04:48:22;;;;;;;9.50;8.40;;;;;;;;;;5180507;27;20096;-65
2022/02/26 04:50:48;;;;;;;8.75;7.85;;;;;;;;;;5161187;27;20072;-64
2022/02/26 04:53:14;;;;;;;9.50;8.60;;;;;;;;;;5143937;27;20070;-63
2022/02/26 04:55:41;;;;;;;9.85;8.95;;;;;;;;;;5160935;27;20066;-63
2022/02/26 04:58:07;;;;;;;9.48;8.57;;;;;;;;;;5179861;27;20112;-64
2022/02/26 05:00:33;;;;;;;8.98;8.07;;;;;;;;;;5180060;27;20069;-63
2022/02/26 05:03:00;;;;;;;9.73;8.82;;;;;;;;;;5161260;27;20089;-62
2022/02/26 05:05:27;;;;;;;9.82;7.45;;;;;;;;;;5126591;27;20089;-62
2022/02/26 05:07:53;;;;;;;8.70;7.87;;;;;;;;;;5142438;27;20082;-66
2022/02/26 05:10:19;;;;;;;8.65;7.85;;;;;;;;;;5179412;27;20183;-65
2022/02/26 05:12:45;;;;;;;9.40;8.45;;;;;;;;;;5160981;27;20085;-67
2022/02/26 05:15:11;;;;;;;8.68;7.87;;;;;;;;;;5160611;27;20101;-67
2022/02/26 05:17:39;;;;;;;10.05;9.05;;;;;;;;;;5160809;27;20078;-64
2022/02/26 05:20:05;;;;;;;10.07;8.85;;;;;;;;;;5160645;27;20090;-70
2022/02/26 05:22:35;;;;;;;9.15;8.18;;;;;;;;;;5179487;27;20100;-66
2022/02/26 05:25:05;;;;;;;9.68;8.77;;;;;;;;;;5159390;27;20252;-64
2022/02/26 05:27:31;;;;;;;11.20;8.57;;;;;;;;;;5179167;27;20090;-68
2022/02/26 05:29:57;;;;;;;9.27;8.35;;;;;;;;;;5179362;27;20630;-68
2022/02/26 05:32:24;;;;;;;9.48;8.57;;;;;;;;;;5179262;27;20094;-67
2022/02/26 05:34:51;;;;;;;9.32;8.27;;;;;;;;;;5179691;27;20098;-66
2022/02/26 05:37:18;;;;;;;9.63;8.63;;;;;;;;;;5159733;27;20070;-65
2022/02/26 05:39:44;;;;;;;9.80;8.85;;;;;;;;;;5160542;27;20105;-64
2022/02/26 05:42:10;;;;;;;10.43;9.32;;;;;;;;;;5179522;27;20150;-64
2022/02/26 05:44:36;;;;;;;11.10;9.02;;;;;;;;;;5179197;27;20581;-66
2022/02/26 05:47:03;;;;;;;9.55;8.38;;;;;;;;;;5159683;27;20085;-66
2022/02/26 05:49:29;;;;;;;9.63;8.70;;;;;;;;;;5177678;27;20175;-65
2022/02/26 05:51:55;;;;;;;10.40;9.35;;;;;;;;;;5179330;27;20185;-66
2022/02/26 05:54:21;;;;;;;10.40;9.40;;;;;;;;;;5160902;27;20170;-66
2022/02/26 05:56:47;;;;;;;10.23;9.20;;;;;;;;;;5160952;27;20421;-68
2022/02/26 05:59:13;;;;;;;11.25;10.15;;;;;;;;;;5179942;27;20078;-64
2022/02/26 06:01:39;;;;;;;9.93;8.93;;;;;;;;;;5179337;27;20094;-67
2022/02/26 06:04:05;;;;;;;9.23;8.30;;;;;;;;;;5179460;27;20379;-67
2022/02/26 06:06:31;;;;;;;9.77;8.77;;;;;;;;;;5178546;27;20434;-67
2022/02/26 06:08:57;;;;;;;9.63;8.75;;;;;;;;;;5179219;27;20404;-66
2022/02/26 06:11:24;;;;;;;9.88;8.88;;;;;;;;;;5179684;27;20074;-66
2022/02/26 06:13:51;;;;;;;9.32;8.43;;;;;;;;;;5179508;27;20073;-67
2022/02/26 06:16:17;;;;;;;7.95;7.25;;;;;;;;;;5179624;27;20082;-68
2022/02/26 06:18:43;;;;;;;8.38;7.57;;;;;;;;;;5179546;27;20089;-68
2022/02/26 06:21:09;;;;;;;9.13;8.20;;;;;;;;;;5179457;27;20177;-67
2022/02/26 06:23:35;;;;;;;9.85;8.93;;;;;;;;;;5179455;27;20086;-67
2022/02/26 06:26:01;;;;;;;9.90;8.95;;;;;;;;;;5160193;27;20182;-68
2022/02/26 06:28:27;;;;;;;9.43;8.52;;;;;;;;;;5160502;27;20093;-67
2022/02/26 06:30:54;;;;;;;8.80;8.00;;;;;;;;;;5179238;27;20094;-69
2022/02/26 06:33:20;;;;;;;9.50;8.50;;;;;;;;;;5179725;27;20176;-68
2022/02/26 06:35:46;;;;;;;8.73;7.82;;;;;;;;;;5160279;27;20097;-68
2022/02/26 06:38:12;;;;;;;9.32;8.43;;;;;;;;;;5160527;27;20584;-67
2022/02/26 06:40:39;;;;;;;9.88;8.85;;;;;;;;;;5179361;27;20082;-68
2022/02/26 06:43:05;;;;;;;13.68;12.30;;;;;;;;;;5179606;27;20086;-68
2022/02/26 06:45:31;;;;;;;11.20;9.40;;;;;;;;;;5179457;27;20096;-67
2022/02/26 06:47:57;;;;;;;9.98;8.98;;;;;;;;;;5143227;27;20086;-67
2022/02/26 06:50:23;;;;;;;10.07;9.07;;;;;;;;;;5179351;27;20207;-69
2022/02/26 06:52:49;;;;;;;10.15;8.98;;;;;;;;;;5179405;27;20098;-68
2022/02/26 06:55:15;;;;;;;11.02;9.85;;;;;;;;;;5179307;27;20619;-68
2022/02/26 06:57:42;;;;;;;9.38;8.48;;;;;;;;;;5160143;27;20090;-67
2022/02/26 07:00:10;;;;;;;11.75;9.30;;;;;;;;;;5179089;27;20114;-66
2022/02/26 07:02:37;;;;;;;11.93;9.35;;;;;;;;;;5160577;27;20059;-68
2022/02/26 07:05:04;;;;;;;11.10;9.85;;;;;;;;;;5179330;27;20083;-67
2022/02/26 07:07:30;;;;;;;9.68;8.52;;;;;;;;;;5181111;27;20088;-69
2022/02/26 07:09:56;;;;;;;9.55;8.55;;;;;;;;;;5144277;27;20154;-68
2022/02/26 07:12:22;;;;;;;11.60;8.68;;;;;;;;;;5180799;27;20062;-67
2022/02/26 07:14:48;;;;;;;9.05;8.15;;;;;;;;;;5180954;27;20081;-70
2022/02/26 07:17:15;;;;;;;9.45;8.07;;;;;;;;;;5180684;27;20085;-69
2022/02/26 07:19:42;;;;;;;9.82;8.82;;;;;;;;;;5180741;27;20575;-68
2022/02/26 07:22:08;;;;;;;9.70;7.50;;;;;;;;;;5180413;27;20403;-69
2022/02/26 07:24:34;;;;;;;17.37;14.18;;;;;;;;;;5144943;27;20078;-67
2022/02/26 07:27:00;;;;;;;10.98;9.35;;;;;;;;;;5161602;27;20085;-67
2022/02/26 07:29:27;;;;;;;16.27;12.55;;;;;;;;;;5180669;27;20161;-66
2022/02/26 07:31:53;;;;;;;8.38;7.35;;;;;;;;;;5180305;27;20422;-64
2022/02/26 07:34:19;;;;;;;8.23;7.32;;;;;;;;;;5180549;27;20558;-66
2022/02/26 07:36:45;;;;;;;6.20;5.60;;;;;;;;;;5178684;27;20081;-65
2022/02/26 07:39:11;;;;;;;8.98;6.43;;;;;;;;;;5180045;27;20085;-64
2022/02/26 07:41:37;;;;;;;7.87;6.12;;;;;;;;;;5161281;27;20086;-67
2022/02/26 07:44:03;;;;;;;8.27;6.40;;;;;;;;;;5161432;27;20085;-64
2022/02/26 07:46:29;;;;;;;6.85;6.12;;;;;;;;;;5161622;27;20081;-63
2022/02/26 07:48:55;;;;;;;6.97;5.43;;;;;;;;;;5180441;27;20418;-65
2022/02/26 07:51:21;;;;;;;6.55;5.85;;;;;;;;;;5180422;27;20535;-65
2022/02/26 07:53:47;;;;;;;7.37;5.90;;;;;;;;;;5180818;27;20478;-66
2022/02/26 07:56:14;;;;;;;8.65;6.78;;;;;;;;;;5180321;27;20086;-67
2022/02/26 07:58:40;;;;;;;10.02;6.40;;;;;;;;;;5161424;27;20064;-67
2022/02/26 08:01:07;;;;;;;8.10;7.30;;;;;;;;;;5161152;27;20081;-64
2022/02/26 08:03:33;;;;;;;9.68;7.80;;;;;;;;;;5143975;27;20093;-65
2022/02/26 08:05:59;;;;;;;16.25;13.05;;;;;;;;;;5180428;27;20089;-67
2022/02/26 08:08:25;;;;;;;13.18;11.30;;;;;;;;;;5180468;27;20164;-69
2022/02/26 08:10:51;;;;;;;9.65;8.52;;;;;;;;;;5161268;27;20417;-69
2022/02/26 08:13:17;;;;;;;9.65;7.47;;;;;;;;;;5161570;27;20116;-65
2022/02/26 08:15:43;;;;;;;9.40;8.40;;;;;;;;;;5180289;27;20519;-66
2022/02/26 08:18:10;;;;;;;10.13;9.13;;;;;;;;;;5180180;27;20075;-65
2022/02/26 08:20:36;;;;;;;10.75;9.70;;;;;;;;;;5180250;27;20073;-67
2022/02/26 08:23:03;;;;;;;10.88;9.30;;;;;;;;;;5161022;27;20093;-66
2022/02/26 08:25:29;;;;;;;11.38;9.98;;;;;;;;;;5179621;27;20109;-66
2022/02/26 08:27:55;;;;;;;10.25;9.23;;;;;;;;;;5180242;27;20092;-66
2022/02/26 08:30:22;;;;;;;11.95;9.30;;;;;;;;;;5161237;27;20088;-68
2022/02/26 08:32:49;;;;;;;11.43;10.27;;;;;;;;;;5161434;27;20085;-67
2022/02/26 08:35:15;;;;;;;10.75;9.63;;;;;;;;;;5180174;27;20085;-66
2022/02/26 08:37:43;;;;;;;10.73;9.73;;;;;;;;;;5180102;27;20516;-69
2022/02/26 08:40:10;;;;;;;10.40;9.27;;;;;;;;;;5143563;27;20504;-64
2022/02/26 08:42:36;;;;;;;11.85;10.63;;;;;;;;;;5161153;27;20204;-69
2022/02/26 08:45:04;;;;;;;11.75;9.80;;;;;;;;;;5161192;27;20090;-66
2022/02/26 08:47:31;;;;;;;8.90;8.00;;;;;;;;;;5180120;27;20575;-69
2022/02/26 08:49:58;;;;;;;11.88;10.35;;;;;;;;;;5160889;27;20098;-68
2022/02/26 08:52:24;;;;;;;8.77;7.87;;;;;;;;;;5161456;27;20089;-68
2022/02/26 08:54:50;;;;;;;9.27;8.38;;;;;;;;;;5180066;27;20092;-63
2022/02/26 08:57:16;;;;;;;10.63;9.10;;;;;;;;;;5180298;27;20086;-65
2022/02/26 08:59:42;;;;;;;11.65;9.07;;;;;;;;;;5161026;27;20075;-76
2022/02/26 09:02:08;;;;;;;10.85;8.85;;;;;;;;;;5180132;27;20082;-69
2022/02/26 09:04:35;;;;;;;13.02;10.07;;;;;;;;;;5180314;27;20093;-76
2022/02/26 09:07:01;;;;;;;11.70;9.75;;;;;;;;;;5180047;27;20074;-72
2022/02/26 09:09:28;;;;;;;11.45;9.77;;;;;;;;;;5161385;27;20414;-72
2022/02/26 09:11:54;;;;;;;11.15;9.48;;;;;;;;;;5161364;27;20062;-74
2022/02/26 09:14:20;;;;;;;11.18;9.75;;;;;;;;;;5161398;27;20074;-71
2022/02/26 09:16:46;;;;;;;9.60;8.45;;;;;;;;;;5179756;27;20093;-71
2022/02/26 09:19:12;;;;;;;11.07;9.57;;;;;;;;;;5179999;27;20070;-72
2022/02/26 09:21:38;;;;;;;11.88;10.15;;;;;;;;;;5161026;27;20491;-72
2022/02/26 09:24:05;;;;;;;11.27;9.40;;;;;;;;;;5160955;27;20090;-72
2022/02/26 09:26:31;;;;;;;10.05;9.02;;;;;;;;;;5143688;27;20076;-72
2022/02/26 09:28:57;;;;;;;11.02;9.57;;;;;;;;;;5160551;27;20058;-71
2022/02/26 09:31:23;;;;;;;10.93;9.65;;;;;;;;;;5161048;27;20473;-70
2022/02/26 09:33:49;;;;;;;11.20;10.13;;;;;;;;;;5160778;27;20084;-66
2022/02/26 09:36:16;;;;;;;12.10;10.10;;;;;;;;;;5160666;27;20094;-64
2022/02/26 09:38:42;;;;;;;11.35;10.15;;;;;;;;;;5179815;27;20417;-73
2022/02/26 09:41:10;;;;;;;12.20;9.40;;;;;;;;;;5143612;27;20176;-65
2022/02/26 09:43:36;;;;;;;11.88;10.40;;;;;;;;;;5179853;27;20154;-67
2022/02/26 09:46:03;;;;;;;11.63;9.95;;;;;;;;;;5178424;27;20477;-68
2022/02/26 09:48:32;;;;;;;10.45;9.30;;;;;;;;;;5201469;27;20096;-66
2022/02/26 09:50:58;;;;;;;12.00;10.15;;;;;;;;;;5200762;27;20480;-68
2022/02/26 09:53:24;;;;;;;14.70;12.00;;;;;;;;;;5201157;27;20069;-68
2022/02/26 09:55:51;;;;;;;12.65;10.93;;;;;;;;;;5181527;27;20161;-67
2022/02/26 09:58:17;;;;;;;11.55;10.00;;;;;;;;;;5200750;27;20190;-68
2022/02/26 10:00:44;;;;;;;12.07;10.50;;;;;;;;;;5200663;27;20093;-68
2022/02/26 10:03:36;;;;;;;13.30;9.48;;;;;;;;;;5181318;27;20097;-67
2022/02/26 10:06:16;;;;;;;13.77;11.60;;;;;;;;;;5201005;27;20085;-67
2022/02/26 10:08:48;;;;;;;12.37;9.57;;;;;;;;;;5200699;27;20433;-62
2022/02/26 10:11:29;;;;;;;13.60;11.15;;;;;;;;;;5201077;27;20078;-68
2022/02/26 10:14:13;;;;;;;15.18;10.93;;;;;;;;;;5200773;27;20082;-66
2022/02/26 10:16:51;;;;;;;18.00;10.85;;;;;;;;;;5200730;27;20080;-65
2022/02/26 10:19:28;;;;;;;16.62;11.07;;;;;;;;;;5181802;27;20398;-66
2022/02/26 10:21:57;;;;;;;14.13;9.65;;;;;;;;;;5181876;27;20179;-67
2022/02/26 10:24:24;;;;;;;13.93;10.38;;;;;;;;;;5200947;27;20073;-67
2022/02/26 10:26:52;;;;;;;16.73;10.25;;;;;;;;;;5200655;27;20089;-66
2022/02/26 10:29:21;;;;;;;14.85;10.57;;;;;;;;;;5200722;27;20147;-66
2022/02/26 10:31:51;;;;;;;17.62;11.50;;;;;;;;;;5200454;27;20179;-66
2022/02/26 10:34:28;;;;;;;12.20;9.05;;;;;;;;;;5200583;27;20164;-65
2022/02/26 10:36:58;;;;;;;11.35;9.00;;;;;;;;;;5181369;27;20474;-61
2022/02/26 10:39:28;;;;;;;15.68;9.15;;;;;;;;;;5181055;27;20085;-66
2022/02/26 10:41:54;;;;;;;11.18;8.82;;;;;;;;;;5199836;27;20101;-65
2022/02/26 10:44:21;;;;;;;9.70;8.30;;;;;;;;;;5181285;27;20100;-66
2022/02/26 10:46:47;;;;;;;10.35;8.30;;;;;;;;;;5164223;27;20519;-65
2022/02/26 10:49:15;;;;;;;13.65;11.73;;;;;;;;;;5200778;27;20086;-65
2022/02/26 10:51:43;;;;;;;18.65;13.62;;;;;;;;;;5200396;27;20097;-63
2022/02/26 10:54:11;;;;;;;22.30;15.05;;;;;;;;;;5200432;27;20092;-65
2022/02/26 10:56:42;;;;;;;29.65;16.73;;;;;;;;;;5181436;27;20179;-64
2022/02/26 10:59:10;;;;;;;26.58;16.37;;;;;;;;;;5181196;27;20089;-64
2022/02/26 11:01:37;;;;;;;29.50;16.60;;;;;;;;;;5200556;27;20149;-65
2022/02/26 11:04:03;;;;;;;27.15;16.85;;;;;;;;;;5181522;27;20066;-66
2022/02/26 11:06:31;;;;;;;25.73;16.80;;;;;;;;;;5200423;27;20073;-64
2022/02/26 11:08:58;;;;;;;22.75;14.57;;;;;;;;;;5200353;27;20179;-65
2022/02/26 11:11:24;;;;;;;26.00;14.52;;;;;;;;;;5200956;27;20096;-64
2022/02/26 11:13:52;;;;;;;23.60;13.80;;;;;;;;;;5200468;27;20420;-65
2022/02/26 11:16:22;;;;;;;21.45;13.65;;;;;;;;;;5163871;27;20081;-67
2022/02/26 11:18:52;;;;;;;18.92;13.07;;;;;;;;;;5200689;27;20078;-65
2022/02/26 11:21:19;;;;;;;14.52;11.95;;;;;;;;;;5200398;27;20077;-64
2022/02/26 11:23:47;;;;;;;16.73;11.63;;;;;;;;;;5200717;27;20073;-64
2022/02/26 11:26:15;;;;;;;15.18;11.70;;;;;;;;;;5200367;27;20144;-65
2022/02/26 11:28:53;;;;;;;14.38;11.80;;;;;;;;;;5200710;27;20090;-64
2022/02/26 11:31:27;;;;;;;16.20;12.25;;;;;;;;;;5160331;27;20090;-62
2022/02/26 11:33:53;;;;;;;12.27;10.35;;;;;;;;;;5178604;27;20112;-63
2022/02/26 11:36:20;;;;;;;12.37;10.82;;;;;;;;;;5200345;27;20098;-63
2022/02/26 11:38:46;;;;;;;13.70;11.27;;;;;;;;;;5180976;27;20091;-64
2022/02/26 11:41:26;;;;;;;17.00;13.60;;;;;;;;;;5200044;27;20103;-64
2022/02/26 11:44:02;;;;;;;15.10;12.63;;;;;;;;;;5180801;27;20585;-65
2022/02/26 11:46:34;;;;;;;15.40;11.90;;;;;;;;;;5181332;27;20097;-65
2022/02/26 11:49:12;;;;;;;15.70;11.93;;;;;;;;;;5180812;27;20176;-65
2022/02/26 11:51:43;;;;;;;16.10;11.38;;;;;;;;;;5200777;27;20082;-66
2022/02/26 11:54:13;;;;;;;14.13;10.43;;;;;;;;;;5182402;27;20125;-63
2022/02/26 11:56:43;;;;;;;12.98;10.70;;;;;;;;;;5182319;27;20108;-63
2022/02/26 11:59:09;;;;;;;15.45;10.98;;;;;;;;;;5201601;27;20090;-64
2022/02/26 12:01:35;;;;;;;13.75;10.52;;;;;;;;;;5201796;27;20085;-67
2022/02/26 12:04:01;;;;;;;14.40;10.45;;;;;;;;;;5201462;27;20078;-66
2022/02/26 12:06:32;;;;;;;13.45;10.68;;;;;;;;;;5201918;27;20085;-65
2022/02/26 12:09:02;;;;;;;13.35;10.95;;;;;;;;;;5182330;27;20094;-67
2022/02/26 12:11:31;;;;;;;15.52;10.38;;;;;;;;;;5182641;27;20101;-66
2022/02/26 12:14:03;;;;;;;13.55;10.55;;;;;;;;;;5201453;27;20167;-68
2022/02/26 12:16:35;;;;;;;16.20;12.10;;;;;;;;;;5202032;27;20081;-68
2022/02/26 12:19:05;;;;;;;18.40;13.55;;;;;;;;;;5202029;27;20082;-69
2022/02/26 12:21:42;;;;;;;18.73;14.90;;;;;;;;;;5202228;27;20509;-69
2022/02/26 12:24:21;;;;;;;16.20;13.38;;;;;;;;;;5202558;27;20088;-65
2022/02/26 12:27:07;;;;;;;17.37;13.90;;;;;;;;;;5202368;27;20098;-63
2022/02/26 12:29:39;;;;;;;15.73;12.27;;;;;;;;;;5202309;27;20088;-63
2022/02/26 12:32:05;;;;;;;18.10;11.93;;;;;;;;;;5201766;27;20469;-64
2022/02/26 12:34:37;;;;;;;14.43;12.05;;;;;;;;;;5202455;27;20089;-68
2022/02/26 12:37:15;;;;;;;15.02;12.23;;;;;;;;;;5165249;27;20085;-70
2022/02/26 12:39:53;;;;;;;13.98;10.88;;;;;;;;;;5201913;27;20547;-64
2022/02/26 12:42:22;;;;;;;15.43;11.35;;;;;;;;;;5182032;27;20068;-64
2022/02/26 12:44:49;;;;;;;16.17;12.05;;;;;;;;;;5201555;27;20088;-65
2022/02/26 12:47:15;;;;;;;17.37;12.85;;;;;;;;;;5201363;27;20089;-71
2022/02/26 12:49:41;;;;;;;16.85;13.25;;;;;;;;;;5201477;27;20474;-68
2022/02/26 12:52:10;;;;;;;19.30;13.98;;;;;;;;;;5201069;27;20132;-64
2022/02/26 12:54:37;;;;;;;15.52;12.88;;;;;;;;;;5201361;27;20179;-64
2022/02/26 12:57:03;;;;;;;15.57;12.95;;;;;;;;;;5201005;27;20506;-65
2022/02/26 12:59:31;;;;;;;16.87;13.62;;;;;;;;;;5181960;27;20092;-64
2022/02/26 13:01:58;;;;;;;19.83;15.57;;;;;;;;;;5201245;27;20382;-64
2022/02/26 13:04:28;;;;;;;20.65;14.05;;;;;;;;;;5201123;27;20100;-63
2022/02/26 13:07:06;;;;;;;15.13;12.50;;;;;;;;;;5181628;27;20096;-63
2022/02/26 13:09:34;;;;;;;13.13;11.12;;;;;;;;;;5201313;27;20069;-64
2022/02/26 13:12:03;;;;;;;14.60;11.32;;;;;;;;;;5181903;27;20109;-65
2022/02/26 13:14:29;;;;;;;13.48;10.75;;;;;;;;;;5182181;27;20151;-65
2022/02/26 13:17:00;;;;;;;14.95;10.75;;;;;;;;;;5181701;27;20405;-65
2022/02/26 13:19:27;;;;;;;14.45;10.90;;;;;;;;;;5201081;27;20157;-64
2022/02/26 13:21:54;;;;;;;13.60;10.35;;;;;;;;;;5201012;27;20486;-64
2022/02/26 13:24:26;;;;;;;11.50;9.38;;;;;;;;;;5200973;27;20104;-65
2022/02/26 13:26:54;;;;;;;13.60;9.73;;;;;;;;;;5181824;27;20072;-65
2022/02/26 13:29:20;;;;;;;15.88;10.18;;;;;;;;;;5200906;27;20473;-65
2022/02/26 13:31:46;;;;;;;12.48;9.35;;;;;;;;;;5200918;27;20162;-65
2022/02/26 13:34:15;;;;;;;10.90;8.65;;;;;;;;;;5200895;27;20557;-65
2022/02/26 13:36:45;;;;;;;11.32;9.30;;;;;;;;;;5201158;27;20060;-65
2022/02/26 13:39:12;;;;;;;13.80;9.50;;;;;;;;;;5200943;27;20089;-64
2022/02/26 13:41:39;;;;;;;13.30;10.35;;;;;;;;;;5201142;27;20119;-63
2022/02/26 13:44:10;;;;;;;11.82;9.88;;;;;;;;;;5200766;27;20065;-65
2022/02/26 13:46:37;;;;;;;16.35;11.88;;;;;;;;;;5201113;27;20472;-65
2022/02/26 13:49:04;;;;;;;13.07;10.57;;;;;;;;;;5200790;27;20520;-64
2022/02/26 13:51:33;;;;;;;12.27;10.32;;;;;;;;;;5164741;27;20111;-65
2022/02/26 13:54:00;;;;;;;13.55;10.50;;;;;;;;;;5200860;27;20448;-65
2022/02/26 13:56:30;;;;;;;11.73;10.10;;;;;;;;;;5181525;27;20058;-65
2022/02/26 13:58:56;;;;;;;10.65;9.45;;;;;;;;;;5182004;27;20142;-65
2022/02/26 14:01:23;;;;;;;13.18;10.77;;;;;;;;;;5200925;27;20405;-65
2022/02/26 14:03:51;;;;;;;12.37;10.50;;;;;;;;;;5200748;27;20459;-65
2022/02/26 14:06:18;;;;;;;11.93;9.00;;;;;;;;;;5200898;27;20393;-66
2022/02/26 14:08:45;;;;;;;13.48;9.48;;;;;;;;;;5200730;27;20086;-66
2022/02/26 14:11:14;;;;;;;10.73;9.32;;;;;;;;;;5200615;27;20181;-67
2022/02/26 14:13:40;;;;;;;13.32;10.25;;;;;;;;;;5200752;27;20094;-65
2022/02/26 14:16:07;;;;;;;12.23;10.63;;;;;;;;;;5200710;27;20073;-65
2022/02/26 14:18:35;;;;;;;16.62;11.75;;;;;;;;;;5201011;27;20053;-63
2022/02/26 14:21:02;;;;;;;13.07;11.63;;;;;;;;;;5181271;27;20482;-64
2022/02/26 14:23:28;;;;;;;12.48;10.25;;;;;;;;;;5181647;27;20066;-65
2022/02/26 14:25:57;;;;;;;17.33;12.63;;;;;;;;;;5146849;27;20081;-65
2022/02/26 14:28:24;;;;;;;13.85;11.02;;;;;;;;;;5200638;27;20179;-63
2022/02/26 14:30:54;;;;;;;12.37;11.07;;;;;;;;;;5200586;27;20473;-63
2022/02/26 14:33:22;;;;;;;14.98;11.50;;;;;;;;;;5181697;27;20419;-63
2022/02/26 14:35:49;;;;;;;13.40;11.27;;;;;;;;;;5182018;27;20505;-63
2022/02/26 14:38:15;;;;;;;15.35;11.43;;;;;;;;;;5181808;27;20397;-63
2022/02/26 14:40:42;;;;;;;13.07;10.20;;;;;;;;;;5200641;27;20097;-63
2022/02/26 14:43:09;;;;;;;12.90;10.40;;;;;;;;;;5200409;27;20097;-62
2022/02/26 14:45:36;;;;;;;12.85;10.27;;;;;;;;;;5200596;27;20070;-63
2022/02/26 14:48:02;;;;;;;14.43;10.68;;;;;;;;;;5200566;27;20089;-63
2022/02/26 14:50:28;;;;;;;15.68;10.35;;;;;;;;;;5181164;27;20595;-63
2022/02/26 14:52:54;;;;;;;11.18;9.98;;;;;;;;;;5200828;27;20089;-63
2022/02/26 14:55:21;;;;;;;13.85;11.12;;;;;;;;;;5200640;27;20073;-63